createdAt,value
2018-07-05T00:01:15.448Z,4.80
2018-07-05T00:03:54.969Z,3.93
2018-07-05T00:06:34.756Z,4.30
2018-07-05T00:09:15.166Z,9.53
2018-07-05T00:11:54.790Z,4.03
2018-07-05T00:14:34.669Z,4.53
2018-07-05T00:17:14.322Z,4.87
2018-07-05T00:19:53.863Z,3.87
2018-07-05T00:22:33.670Z,3.60
2018-07-05T00:25:13.349Z,7.07
2018-07-05T00:27:52.856Z,5.37
2018-07-05T00:30:32.545Z,7.50
2018-07-05T00:33:12.236Z,14.90
2018-07-05T00:35:51.716Z,5.77
2018-07-05T00:38:31.429Z,5.60
2018-07-05T00:41:10.979Z,7.57
2018-07-05T00:43:50.719Z,5.30
2018-07-05T00:46:30.339Z,4.10
2018-07-05T00:49:10.179Z,7.93
2018-07-05T00:51:50.277Z,10.70
2018-07-05T00:54:29.927Z,7.90
2018-07-05T00:57:09.453Z,9.83
2018-07-05T00:59:48.945Z,10.77
2018-07-05T01:02:28.368Z,9.33
2018-07-05T01:05:07.935Z,9.57
2018-07-05T01:07:47.425Z,6.93
2018-07-05T01:10:26.971Z,7.07
2018-07-05T01:13:06.739Z,10.70
2018-07-05T01:15:46.935Z,9.17
2018-07-05T01:18:26.463Z,6.30
2018-07-05T01:21:05.986Z,4.97
2018-07-05T01:23:45.704Z,7.80
2018-07-05T01:26:25.358Z,5.90
2018-07-05T01:29:04.944Z,5.50
2018-07-05T01:31:44.526Z,7.43
2018-07-05T01:34:24.051Z,8.30
2018-07-05T01:37:03.598Z,10.47
2018-07-05T01:39:43.080Z,6.33
2018-07-05T01:42:22.756Z,5.90
2018-07-05T01:45:02.327Z,5.30
2018-07-05T01:47:41.846Z,10.60
2018-07-05T01:50:21.324Z,7.17
2018-07-05T01:53:00.845Z,6.33
2018-07-05T01:55:40.462Z,8.87
2018-07-05T01:58:20.149Z,9.30
2018-07-05T02:00:59.774Z,8.57
2018-07-05T02:03:39.447Z,4.93
2018-07-05T02:06:19.002Z,7.77
2018-07-05T02:08:58.589Z,8.97
2018-07-05T02:11:38.212Z,5.60
2018-07-05T02:14:17.756Z,6.33
2018-07-05T02:16:57.674Z,6.27
2018-07-05T02:19:37.306Z,4.90
2018-07-05T02:22:16.921Z,4.50
2018-07-05T02:24:56.494Z,7.60
2018-07-05T02:27:36.801Z,7.87
2018-07-05T02:30:16.677Z,12.23
2018-07-05T02:32:56.414Z,12.57
2018-07-05T02:35:36.064Z,6.73
2018-07-05T02:38:20.985Z,8.17
2018-07-05T02:41:00.592Z,5.20
2018-07-05T02:43:40.230Z,11.80
2018-07-05T02:46:19.699Z,12.57
2018-07-05T02:48:59.307Z,8.77
2018-07-05T02:51:39.405Z,5.03
2018-07-05T02:54:19.226Z,8.20
2018-07-05T02:56:58.990Z,5.57
2018-07-05T02:59:38.571Z,7.17
2018-07-05T03:02:18.364Z,4.80
2018-07-05T03:04:57.875Z,3.90
2018-07-05T03:07:37.552Z,4.27
2018-07-05T03:10:17.162Z,6.57
2018-07-05T03:12:56.791Z,5.97
2018-07-05T03:15:36.458Z,8.63
2018-07-05T03:18:16.117Z,4.60
2018-07-05T03:20:55.599Z,4.30
2018-07-05T03:23:35.263Z,4.33
2018-07-05T03:26:14.758Z,9.23
2018-07-05T03:28:54.416Z,14.90
2018-07-05T03:31:34.098Z,8.73
2018-07-05T03:34:13.634Z,13.33
2018-07-05T03:36:53.154Z,14.20
2018-07-05T03:39:33.165Z,16.10
2018-07-05T03:42:12.767Z,16.40
2018-07-05T03:44:52.350Z,16.20
2018-07-05T03:47:32.530Z,12.63
2018-07-05T03:50:12.199Z,9.53
2018-07-05T03:52:51.836Z,20.30
2018-07-05T03:55:32.011Z,18.27
2018-07-05T03:58:11.479Z,12.33
2018-07-05T04:00:51.157Z,7.83
2018-07-05T04:03:30.908Z,20.57
2018-07-05T04:06:10.483Z,9.10
2018-07-05T04:08:49.977Z,10.03
2018-07-05T04:11:29.525Z,7.17
2018-07-05T04:14:09.208Z,18.00
2018-07-05T04:16:42.877Z,20.30
2018-07-05T04:19:22.539Z,18.23
2018-07-05T04:22:02.269Z,22.67
2018-07-05T04:24:41.897Z,13.43
2018-07-05T04:27:21.582Z,7.93
2018-07-05T04:30:02.059Z,10.37
2018-07-05T04:32:41.734Z,15.50
2018-07-05T04:35:21.293Z,16.83
2018-07-05T04:38:01.116Z,14.50
2018-07-05T04:40:40.725Z,17.40
2018-07-05T04:43:15.250Z,16.60
2018-07-05T04:45:55.685Z,10.43
2018-07-05T04:48:35.394Z,7.77
2018-07-05T04:51:15.324Z,15.10
2018-07-05T04:53:55.008Z,14.43
2018-07-05T04:56:34.816Z,9.53
2018-07-05T04:59:14.679Z,8.03
2018-07-05T05:01:54.468Z,12.57
2018-07-05T05:04:34.348Z,13.30
2018-07-05T05:07:07.957Z,9.73
2018-07-05T05:09:47.706Z,9.43
2018-07-05T05:12:27.200Z,10.53
2018-07-05T05:15:06.712Z,15.07
2018-07-05T05:17:46.254Z,12.00
2018-07-05T05:20:26.384Z,8.10
2018-07-05T05:23:06.000Z,7.53
2018-07-05T05:25:45.470Z,6.93
2018-07-05T05:28:25.086Z,15.23
2018-07-05T05:31:04.891Z,8.50
2018-07-05T05:33:44.409Z,5.77
2018-07-05T05:36:24.182Z,6.70
2018-07-05T05:39:04.933Z,11.90
2018-07-05T05:41:44.650Z,9.93
2018-07-05T05:44:24.188Z,13.07
2018-07-05T05:47:03.949Z,12.87
2018-07-05T05:49:43.622Z,9.47
2018-07-05T05:52:23.501Z,8.50
2018-07-05T05:54:57.196Z,10.67
2018-07-05T05:57:36.817Z,12.20
2018-07-05T06:00:16.351Z,9.80
2018-07-05T06:02:55.768Z,10.00
2018-07-05T06:05:35.469Z,17.83
2018-07-05T06:08:15.172Z,17.13
2018-07-05T06:10:54.786Z,9.80
2018-07-05T06:13:34.318Z,13.87
2018-07-05T06:16:13.728Z,11.53
2018-07-05T06:18:53.283Z,9.83
2018-07-05T06:21:32.822Z,12.17
2018-07-05T06:24:12.511Z,12.13
2018-07-05T06:26:52.054Z,12.63
2018-07-05T06:29:32.454Z,8.77
2018-07-05T06:32:12.100Z,11.77
2018-07-05T06:34:51.588Z,13.50
2018-07-05T06:37:31.197Z,7.83
2018-07-05T06:40:10.867Z,8.73
2018-07-05T06:42:50.420Z,12.80
2018-07-05T06:45:29.906Z,11.87
2018-07-05T06:48:09.730Z,12.60
2018-07-05T06:50:49.243Z,9.77
2018-07-05T06:53:28.790Z,8.63
2018-07-05T06:56:08.305Z,10.67
2018-07-05T06:58:47.958Z,8.40
2018-07-05T07:01:27.609Z,10.33
2018-07-05T07:04:07.118Z,7.23
2018-07-05T07:06:46.814Z,7.20
2018-07-05T07:09:26.402Z,6.80
2018-07-05T07:12:05.889Z,7.60
2018-07-05T07:14:45.476Z,5.03
2018-07-05T07:17:25.316Z,7.83
2018-07-05T07:20:05.754Z,7.73
2018-07-05T07:22:45.241Z,6.30
2018-07-05T07:25:24.760Z,8.23
2018-07-05T07:28:04.285Z,7.80
2018-07-05T07:30:44.293Z,9.37
2018-07-05T07:33:23.986Z,5.53
2018-07-05T07:36:03.485Z,8.43
2018-07-05T07:38:43.146Z,5.77
2018-07-05T07:41:22.884Z,8.23
2018-07-05T07:43:50.270Z,4.47
2018-07-05T07:46:17.732Z,6.83
2018-07-05T07:48:45.057Z,3.67
2018-07-05T07:51:12.363Z,4.33
2018-07-05T07:53:39.666Z,5.27
2018-07-05T07:56:06.963Z,4.70
2018-07-05T07:58:34.255Z,9.70
2018-07-05T08:01:01.550Z,4.43
2018-07-05T08:03:28.855Z,7.00
2018-07-05T08:05:56.127Z,3.40
2018-07-05T08:08:23.411Z,3.30
2018-07-05T08:10:50.705Z,6.13
2018-07-05T08:13:18.010Z,4.00
2018-07-05T08:15:45.333Z,3.53
2018-07-05T08:18:12.633Z,4.33
2018-07-05T08:20:39.932Z,3.53
2018-07-05T08:23:07.225Z,2.97
2018-07-05T08:25:34.566Z,3.67
2018-07-05T08:28:01.866Z,6.37
2018-07-05T08:30:29.220Z,2.73
2018-07-05T08:32:56.664Z,3.50
2018-07-05T08:35:24.006Z,3.10
2018-07-05T08:37:51.427Z,3.50
2018-07-05T08:40:18.708Z,2.20
2018-07-05T08:42:46.017Z,3.70
2018-07-05T08:45:13.321Z,4.87
2018-07-05T08:47:40.625Z,2.53
2018-07-05T08:50:07.926Z,2.67
2018-07-05T08:52:35.916Z,2.80
2018-07-05T08:55:03.314Z,2.20
2018-07-05T08:57:30.616Z,2.10
2018-07-05T08:59:58.238Z,2.30
2018-07-05T09:02:25.554Z,1.50
2018-07-05T09:04:52.946Z,1.53
2018-07-05T09:07:20.410Z,2.60
2018-07-05T09:09:47.748Z,2.00
2018-07-05T09:12:15.041Z,2.00
2018-07-05T09:14:42.316Z,1.83
2018-07-05T09:17:09.608Z,1.77
2018-07-05T09:19:36.899Z,1.67
2018-07-05T09:22:04.184Z,2.07
2018-07-05T09:24:31.538Z,4.00
2018-07-05T09:26:58.840Z,2.67
2018-07-05T09:29:26.134Z,1.70
2018-07-05T09:31:53.445Z,3.87
2018-07-05T09:34:20.726Z,1.40
2018-07-05T09:36:48.024Z,1.83
2018-07-05T09:39:15.313Z,2.43
2018-07-05T09:41:42.598Z,1.80
2018-07-05T09:44:09.883Z,2.20
2018-07-05T09:46:37.218Z,2.20
2018-07-05T09:49:04.522Z,1.70
2018-07-05T09:51:31.811Z,1.20
2018-07-05T09:53:59.133Z,1.77
2018-07-05T09:56:26.430Z,3.03
2018-07-05T09:58:53.742Z,1.60
2018-07-05T10:01:21.011Z,1.97
2018-07-05T10:03:48.381Z,2.50
2018-07-05T10:06:15.790Z,2.40
2018-07-05T10:08:43.172Z,3.10
2018-07-05T10:11:10.518Z,2.03
2018-07-05T10:13:38.063Z,1.53
2018-07-05T10:16:05.086Z,1.33
2018-07-05T10:18:32.360Z,1.60
2018-07-05T10:20:59.728Z,1.97
2018-07-05T10:23:27.029Z,2.80
2018-07-05T10:25:54.312Z,2.50
2018-07-05T10:28:21.639Z,1.60
2018-07-05T10:31:01.302Z,1.83
2018-07-05T10:33:40.835Z,2.23
2018-07-05T10:36:08.158Z,2.00
2018-07-05T10:38:35.482Z,2.07
2018-07-05T10:41:15.047Z,3.83
2018-07-05T10:43:54.777Z,2.50
2018-07-05T10:46:34.285Z,3.20
2018-07-05T10:49:13.800Z,2.20
2018-07-05T10:51:53.342Z,3.40
2018-07-05T10:54:32.969Z,2.60
2018-07-05T10:57:12.485Z,2.03
2018-07-05T10:59:52.010Z,2.60
2018-07-05T11:02:32.094Z,3.73
2018-07-05T11:05:11.670Z,3.77
2018-07-05T11:07:51.152Z,4.97
2018-07-05T11:10:31.449Z,1.97
2018-07-05T11:13:11.265Z,2.60
2018-07-05T11:15:50.818Z,3.20
2018-07-05T11:18:30.983Z,1.97
2018-07-05T11:21:10.504Z,2.60
2018-07-05T11:23:50.043Z,2.20
2018-07-05T11:26:29.522Z,2.03
2018-07-05T11:29:09.051Z,2.30
2018-07-05T11:31:48.601Z,1.83
2018-07-05T11:34:28.044Z,4.63
2018-07-05T11:37:07.670Z,4.30
2018-07-05T11:39:47.138Z,2.13
2018-07-05T11:42:26.848Z,2.77
2018-07-05T11:45:06.700Z,2.40
2018-07-05T11:47:46.467Z,2.87
2018-07-05T11:50:26.023Z,2.17
2018-07-05T11:53:05.797Z,3.93
2018-07-05T11:55:45.760Z,2.13
2018-07-05T11:58:25.422Z,2.30
2018-07-05T12:01:05.373Z,3.57
2018-07-05T12:03:39.121Z,1.90
2018-07-05T12:06:18.795Z,1.17
2018-07-05T12:08:52.480Z,2.50
2018-07-05T12:11:33.075Z,2.67
2018-07-05T12:14:12.706Z,2.50
2018-07-05T12:16:52.445Z,1.30
2018-07-05T12:19:32.067Z,1.37
2018-07-05T12:22:11.653Z,1.57
2018-07-05T12:24:52.275Z,2.43
2018-07-05T12:27:32.283Z,2.20
2018-07-05T12:30:12.056Z,1.50
2018-07-05T12:32:52.422Z,1.63
2018-07-05T12:35:32.193Z,3.03
2018-07-05T12:38:12.086Z,3.87
2018-07-05T12:40:55.456Z,2.73
2018-07-05T12:43:39.307Z,2.77
2018-07-05T12:46:19.558Z,2.53
2018-07-05T12:48:59.414Z,2.77
2018-07-05T12:51:43.079Z,1.40
2018-07-05T12:54:28.078Z,2.50
2018-07-05T12:57:12.486Z,3.30
2018-07-05T12:59:52.312Z,3.00
2018-07-05T13:02:31.907Z,4.80
2018-07-05T13:05:11.494Z,4.83
2018-07-05T13:07:51.113Z,7.93
2018-07-05T13:10:30.852Z,8.77
2018-07-05T13:13:10.490Z,6.53
2018-07-05T13:15:50.243Z,9.10
2018-07-05T13:18:29.883Z,9.70
2018-07-05T13:21:09.739Z,7.63
2018-07-05T13:23:49.972Z,10.10
2018-07-05T13:26:23.758Z,9.00
2018-07-05T13:29:03.488Z,11.00
2018-07-05T13:31:43.202Z,9.17
2018-07-05T13:34:22.862Z,9.93
2018-07-05T13:37:02.692Z,8.80
2018-07-05T13:39:42.673Z,5.37
2018-07-05T13:42:22.310Z,9.77
2018-07-05T13:45:01.981Z,6.97
2018-07-05T13:47:41.575Z,9.93
2018-07-05T13:50:21.242Z,5.90
2018-07-05T13:53:00.814Z,8.20
2018-07-05T13:55:40.501Z,8.40
2018-07-05T13:58:20.339Z,6.67
2018-07-05T14:01:00.283Z,6.60
2018-07-05T14:04:03.736Z,6.93
2018-07-05T14:06:50.168Z,7.30
2018-07-05T14:09:29.966Z,10.27
2018-07-05T14:12:09.680Z,9.07
2018-07-05T14:14:56.890Z,8.47
2018-07-05T14:17:36.706Z,4.57
2018-07-05T14:20:12.015Z,4.50
2018-07-05T14:22:51.797Z,7.57
2018-07-05T14:25:31.362Z,8.73
2018-07-05T14:28:11.169Z,7.07
2018-07-05T14:30:50.892Z,7.57
2018-07-05T14:33:30.646Z,7.33
2018-07-05T14:36:10.297Z,6.70
2018-07-05T14:38:50.036Z,8.30
2018-07-05T14:41:29.730Z,6.50
2018-07-05T14:44:09.431Z,6.33
2018-07-05T14:46:49.267Z,5.60
2018-07-05T14:49:28.918Z,5.43
2018-07-05T14:52:08.480Z,4.17
2018-07-05T14:54:48.124Z,5.93
2018-07-05T14:57:27.826Z,4.70
2018-07-05T15:00:08.054Z,4.20
2018-07-05T15:02:47.793Z,5.00
2018-07-05T15:05:29.350Z,4.30
2018-07-05T15:08:13.918Z,5.93
2018-07-05T15:13:53.277Z,4.17
2018-07-05T15:16:36.634Z,3.63
2018-07-05T15:19:16.380Z,3.97
2018-07-05T15:21:56.072Z,4.67
2018-07-05T15:24:35.615Z,5.43
2018-07-05T15:27:15.434Z,4.43
2018-07-05T15:29:55.010Z,2.23
2018-07-05T15:32:35.365Z,4.03
2018-07-05T15:35:15.130Z,5.03
2018-07-05T15:37:54.987Z,3.50
2018-07-05T15:40:34.633Z,5.00
2018-07-05T15:43:14.381Z,5.47
2018-07-05T15:45:54.024Z,5.07
2018-07-05T15:48:34.461Z,5.83
2018-07-05T15:51:19.746Z,3.00
2018-07-05T15:53:53.293Z,3.70
2018-07-05T15:56:32.886Z,5.70
2018-07-05T15:59:12.623Z,4.60
2018-07-05T16:01:52.290Z,2.53
2018-07-05T16:04:31.877Z,2.67
2018-07-05T16:07:12.342Z,3.70
2018-07-05T16:09:52.183Z,5.23
2018-07-05T16:12:31.715Z,3.00
2018-07-05T16:15:11.408Z,4.60
2018-07-05T16:17:51.582Z,5.17
2018-07-05T16:20:31.354Z,3.80
2018-07-05T16:23:11.269Z,3.40
2018-07-05T16:25:45.058Z,4.70
2018-07-05T16:28:24.732Z,5.60
2018-07-05T16:31:04.345Z,4.70
2018-07-05T16:33:43.834Z,4.30
2018-07-05T16:36:23.437Z,4.27
2018-07-05T16:39:03.118Z,5.00
2018-07-05T16:41:42.614Z,6.70
2018-07-05T16:44:16.428Z,3.93
2018-07-05T16:46:56.151Z,4.70
2018-07-05T16:49:35.738Z,5.50
2018-07-05T16:52:15.332Z,5.40
2018-07-05T16:54:55.067Z,4.90
2018-07-05T16:57:34.616Z,4.23
2018-07-05T17:00:14.129Z,4.67
2018-07-05T17:02:53.693Z,6.40
2018-07-05T17:05:33.358Z,6.17
2018-07-05T17:08:06.966Z,3.40
2018-07-05T17:10:46.599Z,3.50
2018-07-05T17:13:26.113Z,2.87
2018-07-05T17:16:05.840Z,3.20
2018-07-05T17:18:45.446Z,4.90
2018-07-05T17:21:24.999Z,11.17
2018-07-05T17:24:04.474Z,4.57
2018-07-05T17:26:44.123Z,7.50
2018-07-05T18:13:15.444Z,9.33
2018-07-05T18:15:54.911Z,3.40
2018-07-05T18:18:35.198Z,6.10
2018-07-05T18:21:14.777Z,10.60
2018-07-05T18:23:54.222Z,5.70
2018-07-05T18:26:34.031Z,3.17
2018-07-05T18:29:13.825Z,2.87
2018-07-05T18:31:53.454Z,2.50
2018-07-05T18:34:33.870Z,5.23
2018-07-05T18:37:13.401Z,2.67
2018-07-05T18:39:53.128Z,6.10
2018-07-05T18:42:32.676Z,3.77
2018-07-05T18:45:12.399Z,5.60
2018-07-05T18:47:52.087Z,4.57
2018-07-05T18:50:31.745Z,3.00
2018-07-05T18:53:11.245Z,3.20
2018-07-05T18:55:51.425Z,2.23
2018-07-05T18:58:31.209Z,2.57
2018-07-05T19:01:10.799Z,2.27
2018-07-05T19:03:50.318Z,3.33
2018-07-05T19:06:29.776Z,1.80
2018-07-05T19:09:09.307Z,4.13
2018-07-05T19:11:49.081Z,3.37
2018-07-05T19:14:28.634Z,3.87
2018-07-05T19:17:08.290Z,6.47
2018-07-05T19:19:47.967Z,2.87
2018-07-05T19:22:27.745Z,3.60
2018-07-05T19:25:07.352Z,2.47
2018-07-05T19:27:47.905Z,3.20
2018-07-05T19:30:27.596Z,3.40
2018-07-05T19:33:07.145Z,4.70
2018-07-05T19:35:46.668Z,2.43
2018-07-05T19:38:26.198Z,4.13
2018-07-05T19:41:05.712Z,2.70
2018-07-05T19:43:45.358Z,3.20
2018-07-05T19:46:24.918Z,2.57
2018-07-05T19:49:04.543Z,2.67
2018-07-05T19:51:44.032Z,2.50
2018-07-05T19:54:23.597Z,3.47
2018-07-05T19:57:03.277Z,2.60
2018-07-05T19:59:43.015Z,2.20
2018-07-05T20:02:22.665Z,2.53
2018-07-05T20:05:02.242Z,3.37
2018-07-05T20:07:41.670Z,2.43
2018-07-05T20:10:21.194Z,4.50
2018-07-05T20:13:00.842Z,2.50
2018-07-05T20:15:40.421Z,5.80
2018-07-05T20:18:20.206Z,2.23
2018-07-05T20:20:59.881Z,2.23
2018-07-05T20:23:39.535Z,3.80
2018-07-05T20:26:13.311Z,3.53
2018-07-05T20:28:53.536Z,2.03
2018-07-05T20:31:33.306Z,2.57
2018-07-05T20:34:13.000Z,1.90
2018-07-05T20:36:52.825Z,1.70
2018-07-05T20:39:32.693Z,2.13
2018-07-05T20:42:12.361Z,1.83
2018-07-05T20:44:52.018Z,2.37
2018-07-05T20:47:31.622Z,1.90
2018-07-05T20:50:11.399Z,1.70
2018-07-05T20:52:52.702Z,8.20
2018-07-05T20:55:32.591Z,9.77
2018-07-05T20:58:12.154Z,4.50
2018-07-05T21:00:51.840Z,4.67
2018-07-05T21:03:31.509Z,3.07
2018-07-05T21:06:11.129Z,2.80
2018-07-05T21:08:50.549Z,2.60
2018-07-05T21:11:30.126Z,4.57
2018-07-05T21:14:09.553Z,2.73
2018-07-05T21:16:49.193Z,2.70
2018-07-05T21:19:30.193Z,2.93
2018-07-05T21:22:10.182Z,2.00
2018-07-05T21:24:49.726Z,1.93
2018-07-05T21:27:29.250Z,1.87
2018-07-05T21:30:08.962Z,3.47
2018-07-05T21:32:48.502Z,5.07
2018-07-05T21:35:28.026Z,3.50
2018-07-05T21:38:07.565Z,3.20
2018-07-05T21:40:47.103Z,2.67
2018-07-05T21:43:26.632Z,2.20
2018-07-05T21:46:06.347Z,2.20
2018-07-05T21:48:45.987Z,2.47
2018-07-05T21:51:25.399Z,2.10
2018-07-05T21:54:05.088Z,2.53
2018-07-05T21:56:44.741Z,3.43
2018-07-05T21:59:24.345Z,2.53
2018-07-05T22:02:04.568Z,2.00
2018-07-05T22:04:44.170Z,3.50
2018-07-05T22:07:23.693Z,4.33
2018-07-05T22:10:03.293Z,2.57
2018-07-05T22:12:42.831Z,2.40
2018-07-05T22:15:22.447Z,2.27
2018-07-05T22:18:07.320Z,1.60
2018-07-05T22:20:52.219Z,1.80
2018-07-05T22:23:37.107Z,1.90
2018-07-05T22:26:31.273Z,5.77
2018-07-05T22:29:16.102Z,4.97
2018-07-05T22:31:59.653Z,2.50
2018-07-05T22:34:39.255Z,4.30
2018-07-05T22:37:18.811Z,4.43
2018-07-05T22:39:58.224Z,5.07
2018-07-05T22:42:37.919Z,2.90
2018-07-05T22:45:17.842Z,2.73
2018-07-05T22:47:57.369Z,2.20
2018-07-05T22:50:37.013Z,2.13
2018-07-05T22:53:16.662Z,3.27
2018-07-05T22:55:56.377Z,3.43
2018-07-05T22:58:36.269Z,2.97
2018-07-05T23:01:16.912Z,2.30
2018-07-05T23:03:57.073Z,3.17
2018-07-05T23:06:36.767Z,3.20
2018-07-05T23:09:16.577Z,2.37
2018-07-05T23:11:56.369Z,2.97
2018-07-05T23:14:35.985Z,2.40
2018-07-05T23:17:15.728Z,3.20
2018-07-05T23:19:55.466Z,2.47
2018-07-05T23:22:35.053Z,2.23
2018-07-05T23:25:14.749Z,7.40
2018-07-05T23:27:54.400Z,6.67
2018-07-05T23:30:34.086Z,10.53
2018-07-05T23:33:14.024Z,8.37
2018-07-05T23:35:53.700Z,7.23
2018-07-05T23:38:33.298Z,7.73
2018-07-05T23:41:12.993Z,5.57
2018-07-05T23:43:52.816Z,11.23
2018-07-05T23:46:32.463Z,8.83
2018-07-05T23:49:11.930Z,6.03
2018-07-05T23:51:51.661Z,3.20
2018-07-05T23:54:31.560Z,6.23
2018-07-05T23:57:11.198Z,10.03
2018-07-05T23:59:50.927Z,6.43
